createdAt,value
2022-12-03T00:00:56.578Z,101260.56
2022-12-03T00:02:59.735Z,101253.63
2022-12-03T00:05:02.673Z,101258.75
2022-12-03T00:07:07.182Z,101248.34
2022-12-03T00:09:10.118Z,101256.22
2022-12-03T00:11:13.295Z,101255.31
2022-12-03T00:13:16.243Z,101256.22
2022-12-03T00:15:20.591Z,101250.13
2022-12-03T00:17:23.481Z,101256.16
2022-12-03T00:19:26.410Z,101257.94
2022-12-03T00:21:29.239Z,101255.31
2022-12-03T00:23:41.723Z,101252.72
2022-12-03T00:25:45.264Z,101244.94
2022-12-03T00:27:48.587Z,101253.56
2022-12-03T00:29:51.697Z,101247.53
2022-12-03T00:31:54.723Z,101245.84
2022-12-03T00:33:57.585Z,101250.22
2022-12-03T00:36:00.492Z,101247.53
2022-12-03T00:38:03.394Z,101238.00
2022-12-03T00:40:09.701Z,101240.59
2022-12-03T00:42:12.567Z,101241.44
2022-12-03T00:44:15.674Z,101241.44
2022-12-03T00:46:21.606Z,101246.63
2022-12-03T00:48:24.847Z,101244.00
2022-12-03T00:50:27.740Z,101237.97
2022-12-03T00:52:33.051Z,101240.63
2022-12-03T00:54:38.360Z,101237.19
2022-12-03T00:56:42.646Z,101239.72
2022-12-03T00:58:45.593Z,101245.81
2022-12-03T01:00:48.605Z,101241.50
2022-12-03T01:02:51.617Z,101242.41
2022-12-03T01:04:54.877Z,101244.94
2022-12-03T01:06:58.401Z,101238.84
2022-12-03T01:09:01.486Z,101237.94
2022-12-03T01:11:24.425Z,101240.59
2022-12-03T01:13:28.656Z,101241.44
2022-12-03T01:15:31.622Z,101244.94
2022-12-03T01:17:34.892Z,101239.72
2022-12-03T01:19:41.224Z,101250.09
2022-12-03T01:21:49.473Z,101236.22
2022-12-03T01:23:52.363Z,101251.84
2022-12-03T01:25:55.446Z,101251.00
2022-12-03T01:27:58.438Z,101245.81
2022-12-03T01:30:02.893Z,101244.94
2022-12-03T01:32:17.137Z,101246.66
2022-12-03T01:34:20.083Z,101251.91
2022-12-03T01:36:23.209Z,101244.94
2022-12-03T01:38:26.057Z,101246.63
2022-12-03T01:40:28.958Z,101239.72
2022-12-03T01:42:34.746Z,101233.59
2022-12-03T01:44:38.403Z,101239.69
2022-12-03T01:46:43.415Z,101244.84
2022-12-03T01:48:46.797Z,101236.28
2022-12-03T01:50:49.782Z,101230.19
2022-12-03T01:52:53.566Z,101234.53
2022-12-03T01:54:59.746Z,101244.03
2022-12-03T01:57:03.474Z,101234.50
2022-12-03T01:59:06.553Z,101236.22
2022-12-03T02:01:14.232Z,101242.34
2022-12-03T02:03:20.429Z,101236.22
2022-12-03T02:05:26.213Z,101239.69
2022-12-03T02:07:30.687Z,101236.22
2022-12-03T02:09:33.640Z,101243.13
2022-12-03T02:11:39.023Z,101241.41
2022-12-03T02:13:41.921Z,101240.50
2022-12-03T02:15:44.960Z,101242.22
2022-12-03T02:17:47.884Z,101241.41
2022-12-03T02:19:52.530Z,101237.91
2022-12-03T02:22:01.713Z,101245.75
2022-12-03T02:24:10.537Z,101237.91
2022-12-03T02:26:14.867Z,101241.41
2022-12-03T02:28:17.829Z,101238.72
2022-12-03T02:30:23.256Z,101237.91
2022-12-03T02:32:26.587Z,101241.34
2022-12-03T02:34:40.498Z,101243.09
2022-12-03T02:36:43.451Z,101230.13
2022-12-03T02:38:46.786Z,101231.00
2022-12-03T02:40:51.950Z,101231.00
2022-12-03T02:42:58.675Z,101231.03
2022-12-03T02:45:05.445Z,101227.53
2022-12-03T02:47:09.077Z,101225.78
2022-12-03T02:49:12.151Z,101227.47
2022-12-03T02:51:15.049Z,101219.63
2022-12-03T02:53:20.986Z,101231.81
2022-12-03T02:55:24.336Z,101227.47
2022-12-03T02:57:27.315Z,101229.19
2022-12-03T02:59:31.700Z,101229.19
2022-12-03T03:01:35.840Z,101226.50
2022-12-03T03:03:39.229Z,101228.22
2022-12-03T03:05:42.554Z,101229.97
2022-12-03T03:07:46.014Z,101229.09
2022-12-03T03:09:49.036Z,101223.97
2022-12-03T03:11:51.902Z,101227.41
2022-12-03T03:13:54.940Z,101213.56
2022-12-03T03:15:59.814Z,101219.63
2022-12-03T03:18:03.994Z,101217.88
2022-12-03T03:20:09.102Z,101217.00
2022-12-03T03:22:12.453Z,101216.09
2022-12-03T03:24:15.334Z,101216.94
2022-12-03T03:26:18.178Z,101211.69
2022-12-03T03:28:21.574Z,101222.16
2022-12-03T03:30:26.097Z,101223.00
2022-12-03T03:32:31.467Z,101218.59
2022-12-03T03:34:34.654Z,101214.19
2022-12-03T03:36:37.881Z,101215.16
2022-12-03T03:38:40.999Z,101212.53
2022-12-03T03:40:44.420Z,101202.06
2022-12-03T03:42:47.705Z,101212.50
2022-12-03T03:44:50.853Z,101214.28
2022-12-03T03:46:53.926Z,101212.50
2022-12-03T03:48:58.122Z,101212.50
2022-12-03T03:51:01.909Z,101214.22
2022-12-03T03:53:06.966Z,101209.84
2022-12-03T03:55:11.731Z,101209.84
2022-12-03T03:57:14.635Z,101206.38
2022-12-03T03:59:18.606Z,101213.22
2022-12-03T04:01:21.707Z,101205.53
2022-12-03T04:03:24.637Z,101213.31
2022-12-03T04:05:29.073Z,101211.59
2022-12-03T04:07:32.498Z,101208.13
2022-12-03T04:09:35.440Z,101206.34
2022-12-03T04:11:56.034Z,101210.63
2022-12-03T04:13:58.962Z,101210.66
2022-12-03T04:16:02.206Z,101209.84
2022-12-03T04:18:22.881Z,101199.44
2022-12-03T04:20:25.953Z,101206.31
2022-12-03T04:22:41.335Z,101203.84
2022-12-03T04:24:44.194Z,101207.28
2022-12-03T04:27:04.401Z,101201.19
2022-12-03T04:29:06.332Z,101203.75
2022-12-03T04:31:23.174Z,101203.78
2022-12-03T04:33:43.635Z,101200.34
2022-12-03T04:35:46.656Z,101189.06
2022-12-03T04:37:51.386Z,101195.97
2022-12-03T04:39:54.434Z,101199.47
2022-12-03T04:41:57.332Z,101192.53
2022-12-03T04:44:17.746Z,101188.16
2022-12-03T04:46:20.673Z,101189.03
2022-12-03T04:48:24.782Z,101189.88
2022-12-03T04:50:27.642Z,101186.44
2022-12-03T04:52:30.587Z,101184.72
2022-12-03T04:54:38.896Z,101179.47
2022-12-03T04:56:41.804Z,101181.22
2022-12-03T04:58:46.762Z,101183.84
2022-12-03T05:00:49.672Z,101186.38
2022-12-03T05:02:52.777Z,101174.25
2022-12-03T05:04:55.840Z,101171.72
2022-12-03T05:06:58.892Z,101172.56
2022-12-03T05:09:01.781Z,101188.13
2022-12-03T05:11:06.171Z,101175.13
2022-12-03T05:13:09.307Z,101172.56
2022-12-03T05:15:12.561Z,101177.69
2022-12-03T05:17:15.690Z,101173.41
2022-12-03T05:19:19.046Z,101181.16
2022-12-03T05:21:21.236Z,101176.84
2022-12-03T05:23:24.258Z,101175.94
2022-12-03T05:25:27.317Z,101176.00
2022-12-03T05:27:31.621Z,101180.38
2022-12-03T05:29:34.994Z,101173.41
2022-12-03T05:31:37.885Z,101176.03
2022-12-03T05:33:44.202Z,101166.53
2022-12-03T05:35:47.941Z,101170.84
2022-12-03T05:37:51.042Z,101164.75
2022-12-03T05:39:53.958Z,101182.09
2022-12-03T05:42:14.688Z,101179.53
2022-12-03T05:44:20.671Z,101178.66
2022-12-03T05:46:23.837Z,101187.28
2022-12-03T05:48:26.776Z,101182.97
2022-12-03T05:50:31.153Z,101189.06
2022-12-03T05:52:34.001Z,101183.84
2022-12-03T05:54:37.015Z,101182.16
2022-12-03T05:56:40.870Z,101179.56
2022-12-03T05:58:43.691Z,101177.81
2022-12-03T06:00:50.262Z,101183.88
2022-12-03T06:02:53.466Z,101182.97
2022-12-03T06:04:56.933Z,101178.72
2022-12-03T06:06:59.979Z,101179.56
2022-12-03T06:09:03.023Z,101184.66
2022-12-03T06:11:06.055Z,101181.16
2022-12-03T06:13:09.192Z,101182.03
2022-12-03T06:15:14.075Z,101182.91
2022-12-03T06:17:18.419Z,101185.47
2022-12-03T06:19:21.608Z,101175.84
2022-12-03T06:21:24.765Z,101187.13
2022-12-03T06:23:27.879Z,101182.69
2022-12-03T06:25:30.704Z,101180.97
2022-12-03T06:27:33.570Z,101181.00
2022-12-03T06:29:36.518Z,101186.19
2022-12-03T06:31:39.471Z,101183.63
2022-12-03T06:33:44.074Z,101186.28
2022-12-03T06:35:46.951Z,101179.28
2022-12-03T06:37:49.870Z,101183.63
2022-12-03T06:39:53.068Z,101183.56
2022-12-03T06:41:56.341Z,101179.97
2022-12-03T06:43:59.407Z,101189.59
2022-12-03T06:46:02.633Z,101186.22
2022-12-03T06:48:06.367Z,101188.84
2022-12-03T06:50:12.083Z,101184.50
2022-12-03T06:52:14.985Z,101183.56
2022-12-03T06:54:18.215Z,101184.41
2022-12-03T06:56:22.411Z,101190.50
2022-12-03T06:58:25.605Z,101181.88
2022-12-03T07:00:28.603Z,101191.41
2022-12-03T07:02:31.533Z,101185.31
2022-12-03T07:04:35.208Z,101191.38
2022-12-03T07:06:39.786Z,101178.41
2022-12-03T07:08:42.784Z,101188.72
2022-12-03T07:10:45.841Z,101184.34
2022-12-03T07:12:48.911Z,101187.88
2022-12-03T07:14:52.190Z,101184.38
2022-12-03T07:16:55.331Z,101186.97
2022-12-03T07:18:58.190Z,101187.88
2022-12-03T07:21:01.093Z,101184.34
2022-12-03T07:23:05.423Z,101188.66
2022-12-03T07:25:09.710Z,101185.13
2022-12-03T07:27:12.565Z,101191.16
2022-12-03T07:29:15.411Z,101185.06
2022-12-03T07:31:18.456Z,101185.19
2022-12-03T07:33:21.352Z,101182.53
2022-12-03T07:35:24.305Z,101178.28
2022-12-03T07:37:27.466Z,101179.09
2022-12-03T07:39:31.740Z,101179.06
2022-12-03T07:41:34.745Z,101174.75
2022-12-03T07:43:37.813Z,101171.38
2022-12-03T07:45:40.867Z,101174.81
2022-12-03T07:47:43.719Z,101169.66
2022-12-03T07:49:46.606Z,101171.38
2022-12-03T07:51:54.566Z,101181.66
2022-12-03T07:53:57.421Z,101169.59
2022-12-03T07:56:02.071Z,101169.66
2022-12-03T07:58:05.241Z,101167.97
2022-12-03T08:00:09.092Z,101171.38
2022-12-03T08:02:14.709Z,101170.44
2022-12-03T08:04:22.262Z,101178.28
2022-12-03T08:06:25.165Z,101173.06
2022-12-03T08:08:28.101Z,101173.94
2022-12-03T08:10:31.127Z,101172.31
2022-12-03T08:12:41.005Z,101164.50
2022-12-03T08:14:44.482Z,101173.13
2022-12-03T08:16:48.465Z,101181.88
2022-12-03T08:18:52.218Z,101170.44
2022-12-03T08:20:55.343Z,101171.38
2022-12-03T08:22:58.749Z,101168.00
2022-12-03T08:25:02.043Z,101162.78
2022-12-03T08:27:07.041Z,101161.75
2022-12-03T08:29:12.282Z,101157.41
2022-12-03T08:31:20.021Z,101162.78
2022-12-03T08:33:28.661Z,101156.66
2022-12-03T08:35:32.731Z,101158.34
2022-12-03T08:37:37.411Z,101160.19
2022-12-03T08:39:45.667Z,101161.09
2022-12-03T08:42:13.690Z,101163.72
2022-12-03T08:44:25.136Z,101166.28
2022-12-03T08:46:28.351Z,101164.59
2022-12-03T08:48:36.813Z,101170.72
2022-12-03T08:50:41.847Z,101168.16
2022-12-03T08:52:44.746Z,101162.16
2022-12-03T08:54:52.576Z,101158.63
2022-12-03T08:56:56.046Z,101163.03
2022-12-03T08:59:00.645Z,101163.84
2022-12-03T09:01:19.242Z,101157.81
2022-12-03T09:03:22.306Z,101156.94
2022-12-03T09:05:28.917Z,101154.41
2022-12-03T09:07:31.835Z,101157.84
2022-12-03T09:09:34.993Z,101156.13
2022-12-03T09:11:39.555Z,101151.81
2022-12-03T09:13:42.375Z,101154.44
2022-12-03T09:15:45.351Z,101156.25
2022-12-03T09:17:50.221Z,101146.78
2022-12-03T09:19:53.141Z,101148.44
2022-12-03T09:21:56.122Z,101145.03
2022-12-03T09:23:59.672Z,101138.03
2022-12-03T09:26:04.771Z,101146.75
2022-12-03T09:28:08.864Z,101139.75
2022-12-03T09:30:12.555Z,101142.44
2022-12-03T09:32:18.578Z,101152.84
2022-12-03T09:34:23.574Z,101152.91
2022-12-03T09:36:26.710Z,101161.53
2022-12-03T09:38:29.655Z,101156.31
2022-12-03T09:40:32.559Z,101150.31
2022-12-03T09:42:36.029Z,101159.00
2022-12-03T09:44:42.132Z,101147.72
2022-12-03T09:46:45.592Z,101145.09
2022-12-03T09:48:48.531Z,101147.72
2022-12-03T09:50:53.379Z,101145.97
2022-12-03T09:52:58.994Z,101143.38
2022-12-03T09:55:02.815Z,101142.50
2022-12-03T09:57:05.826Z,101137.34
2022-12-03T09:59:14.068Z,101136.53
2022-12-03T10:01:17.281Z,101139.09
2022-12-03T10:03:26.516Z,101145.19
2022-12-03T10:05:33.255Z,101135.66
2022-12-03T10:07:37.770Z,101125.31
2022-12-03T10:09:40.868Z,101117.44
2022-12-03T10:11:44.275Z,101119.22
2022-12-03T10:13:47.426Z,101125.25
2022-12-03T10:15:50.478Z,101114.88
2022-12-03T10:17:54.624Z,101107.09
2022-12-03T10:19:57.621Z,101104.53
2022-12-03T10:22:01.037Z,101107.09
2022-12-03T10:24:22.851Z,101100.16
2022-12-03T10:26:38.758Z,101099.25
2022-12-03T10:28:44.213Z,101096.66
2022-12-03T10:30:54.491Z,101106.25
2022-12-03T10:32:59.009Z,101101.88
2022-12-03T10:35:10.236Z,101098.38
2022-12-03T10:37:16.011Z,101089.72
2022-12-03T10:39:20.576Z,101085.34
2022-12-03T10:41:26.353Z,101086.28
2022-12-03T10:43:29.200Z,101076.66
2022-12-03T10:45:35.090Z,101079.31
2022-12-03T10:47:38.309Z,101073.19
2022-12-03T10:49:42.067Z,101073.19
2022-12-03T10:51:46.097Z,101073.28
2022-12-03T10:53:50.084Z,101069.78
2022-12-03T10:55:58.801Z,101073.31
2022-12-03T10:58:01.699Z,101067.22
2022-12-03T11:00:05.367Z,101060.28
2022-12-03T11:02:12.253Z,101059.44
2022-12-03T11:04:23.213Z,101053.34
2022-12-03T11:06:26.525Z,101054.19
2022-12-03T11:08:33.122Z,101045.50
2022-12-03T11:10:36.696Z,101051.56
2022-12-03T11:12:42.405Z,101045.50
2022-12-03T11:15:07.494Z,101049.84
2022-12-03T11:17:10.364Z,101042.91
2022-12-03T11:19:17.497Z,101045.50
2022-12-03T11:21:20.386Z,101048.13
2022-12-03T11:23:59.095Z,101044.66
2022-12-03T11:26:02.013Z,101040.31
2022-12-03T11:28:54.900Z,101035.13
2022-12-03T11:31:01.809Z,101036.84
2022-12-03T11:33:06.320Z,101034.25
2022-12-03T11:35:12.820Z,101035.13
2022-12-03T11:37:27.423Z,101035.97
2022-12-03T11:39:59.722Z,101037.72
2022-12-03T11:42:30.028Z,101039.47
2022-12-03T11:44:34.690Z,101032.50
2022-12-03T11:46:44.006Z,101040.31
2022-12-03T11:48:47.868Z,101029.00
2022-12-03T11:50:52.121Z,101034.25
2022-12-03T11:52:56.820Z,101026.38
2022-12-03T11:55:02.890Z,101032.44
2022-12-03T11:57:27.138Z,101022.06
2022-12-03T11:59:30.188Z,101025.50
2022-12-03T12:01:38.908Z,101016.84
2022-12-03T12:03:45.831Z,101015.97
2022-12-03T12:06:01.563Z,101012.50
2022-12-03T12:08:04.704Z,101003.78
2022-12-03T12:10:08.592Z,101013.38
2022-12-03T12:12:30.256Z,101002.06
2022-12-03T12:14:33.165Z,101004.69
2022-12-03T12:16:50.835Z,101012.53
2022-12-03T12:18:55.451Z,100996.84
2022-12-03T12:21:32.472Z,100990.78
2022-12-03T12:23:35.805Z,100993.34
2022-12-03T12:25:42.010Z,100986.41
2022-12-03T12:27:49.418Z,100988.13
2022-12-03T12:29:57.902Z,100981.19
2022-12-03T12:32:09.518Z,100980.34
2022-12-03T12:34:13.123Z,100977.75
2022-12-03T12:36:16.305Z,100981.22
2022-12-03T12:38:21.707Z,100977.75
2022-12-03T12:40:26.803Z,100974.25
2022-12-03T12:42:35.028Z,100976.03
2022-12-03T12:44:37.880Z,100977.75
2022-12-03T12:46:47.707Z,100978.63
2022-12-03T12:48:57.986Z,100971.66
2022-12-03T12:51:10.218Z,100971.69
2022-12-03T12:53:17.011Z,100962.13
2022-12-03T12:55:20.288Z,100965.59
2022-12-03T12:57:24.415Z,100964.72
2022-12-03T12:59:27.291Z,100971.69
2022-12-03T13:01:31.774Z,100969.91
2022-12-03T13:03:38.051Z,100964.69
2022-12-03T13:05:45.543Z,100959.44
2022-12-03T13:07:48.757Z,100962.91
2022-12-03T13:09:56.095Z,100956.00
2022-12-03T13:12:00.504Z,100955.16
2022-12-03T13:14:03.831Z,100952.56
2022-12-03T13:16:08.755Z,100952.56
2022-12-03T13:18:23.470Z,100943.03
2022-12-03T13:20:26.540Z,100943.03
2022-12-03T13:22:31.112Z,100940.38
2022-12-03T13:24:35.536Z,100941.25
2022-12-03T13:26:40.548Z,100954.28
2022-12-03T13:28:43.447Z,100935.22
2022-12-03T13:30:46.375Z,100939.53
2022-12-03T13:32:49.284Z,100936.09
2022-12-03T13:34:52.858Z,100934.31
2022-12-03T13:36:58.577Z,100929.13
2022-12-03T13:39:03.825Z,100923.06
2022-12-03T13:41:06.894Z,100929.13
2022-12-03T13:43:11.159Z,100930.88
2022-12-03T13:45:31.747Z,100929.16
2022-12-03T13:47:36.406Z,100923.06
2022-12-03T13:49:39.791Z,100923.94
2022-12-03T13:52:00.512Z,100931.75
2022-12-03T13:54:06.045Z,100926.50
2022-12-03T13:56:22.277Z,100929.94
2022-12-03T13:58:25.357Z,100921.28
2022-12-03T14:00:28.553Z,100918.72
2022-12-03T14:02:31.632Z,100925.66
2022-12-03T14:04:34.938Z,100926.53
2022-12-03T14:06:38.895Z,100916.97
2022-12-03T14:08:41.760Z,100925.66
2022-12-03T14:10:46.250Z,100918.69
2022-12-03T14:12:48.061Z,100916.09
2022-12-03T14:14:51.004Z,100923.88
2022-12-03T14:16:59.501Z,100911.72
2022-12-03T14:19:02.916Z,100913.47
2022-12-03T14:21:05.913Z,100904.78
2022-12-03T14:23:09.186Z,100910.00
2022-12-03T14:25:12.163Z,100902.19
2022-12-03T14:27:17.842Z,100902.19
2022-12-03T14:29:20.879Z,100892.63
2022-12-03T14:31:23.812Z,100902.19
2022-12-03T14:33:26.758Z,100903.03
2022-12-03T14:35:29.662Z,100909.97
2022-12-03T14:37:33.945Z,100911.69
2022-12-03T14:39:37.141Z,100907.34
2022-12-03T14:41:57.199Z,100908.19
2022-12-03T14:44:01.932Z,100913.44
2022-12-03T14:46:04.876Z,100905.63
2022-12-03T14:48:07.843Z,100910.84
2022-12-03T14:50:14.254Z,100910.88
2022-12-03T14:52:17.595Z,100914.31
2022-12-03T14:54:20.678Z,100910.84
2022-12-03T14:56:24.050Z,100910.84
2022-12-03T14:58:27.606Z,100914.28
2022-12-03T15:00:31.980Z,100924.69
2022-12-03T15:02:34.971Z,100917.78
2022-12-03T15:04:38.108Z,100919.50
2022-12-03T15:06:41.803Z,100910.81
2022-12-03T15:08:44.790Z,100916.88
2022-12-03T15:10:47.655Z,100916.84
2022-12-03T15:12:50.763Z,100918.59
2022-12-03T15:14:53.760Z,100920.34
2022-12-03T15:16:59.065Z,100925.53
2022-12-03T15:19:02.123Z,100922.97
2022-12-03T15:21:05.091Z,100918.63
2022-12-03T15:23:14.059Z,100925.56
2022-12-03T15:25:24.160Z,100912.56
2022-12-03T15:27:27.099Z,100916.00
2022-12-03T15:29:30.483Z,100911.69
2022-12-03T15:31:33.511Z,100915.16
2022-12-03T15:33:37.963Z,100905.63
2022-12-03T15:35:42.555Z,100903.00
2022-12-03T15:37:45.754Z,100903.88
2022-12-03T15:39:49.095Z,100905.59
2022-12-03T15:41:52.114Z,100909.94
2022-12-03T15:43:55.180Z,100912.53
2022-12-03T15:45:58.427Z,100916.84
2022-12-03T15:48:02.497Z,100913.38
2022-12-03T15:50:08.268Z,100915.13
2022-12-03T15:52:11.242Z,100915.13
2022-12-03T15:54:14.359Z,100915.16
2022-12-03T15:56:17.586Z,100922.94
2022-12-03T15:58:20.420Z,100908.16
2022-12-03T16:00:24.929Z,100908.19
2022-12-03T16:02:33.849Z,100914.22
2022-12-03T16:04:37.145Z,100905.56
2022-12-03T16:06:41.450Z,100919.44
2022-12-03T16:08:44.660Z,100910.75
2022-12-03T16:10:47.517Z,100910.75
2022-12-03T16:12:50.434Z,100913.41
2022-12-03T16:14:53.391Z,100917.72
2022-12-03T16:16:56.275Z,100915.97
2022-12-03T16:18:59.545Z,100914.19
2022-12-03T16:21:02.808Z,100916.81
2022-12-03T16:23:08.210Z,100921.16
2022-12-03T16:25:11.122Z,100920.28
2022-12-03T16:27:13.979Z,100926.38
2022-12-03T16:29:17.661Z,100919.41
2022-12-03T16:31:20.666Z,100926.38
2022-12-03T16:33:27.573Z,100923.72
2022-12-03T16:35:30.979Z,100928.03
2022-12-03T16:37:33.936Z,100925.44
2022-12-03T16:39:39.109Z,100919.38
2022-12-03T16:41:42.032Z,100919.41
2022-12-03T16:43:47.496Z,100918.53
2022-12-03T16:46:09.867Z,100922.00
2022-12-03T16:48:12.833Z,100919.41
2022-12-03T16:50:21.784Z,100917.69
2022-12-03T16:52:30.979Z,100915.09
2022-12-03T16:54:34.128Z,100916.81
2022-12-03T16:56:38.337Z,100915.91
2022-12-03T16:58:41.361Z,100910.72
2022-12-03T17:00:44.357Z,100911.59
2022-12-03T17:02:47.325Z,100908.09
2022-12-03T17:04:50.311Z,100910.66
2022-12-03T17:06:53.811Z,100906.38
2022-12-03T17:08:56.754Z,100916.75
2022-12-03T17:10:59.741Z,100921.06
2022-12-03T17:13:11.334Z,100916.75
2022-12-03T17:15:14.585Z,100915.88
2022-12-03T17:17:17.480Z,100913.25
2022-12-03T17:19:20.723Z,100915.84
2022-12-03T17:21:23.918Z,100919.28
2022-12-03T17:23:27.073Z,100914.97
2022-12-03T17:25:30.323Z,100917.59
2022-12-03T17:27:33.216Z,100907.19
2022-12-03T17:29:37.522Z,100903.75
2022-12-03T17:31:42.600Z,100907.16
2022-12-03T17:33:45.835Z,100901.97
2022-12-03T17:35:48.908Z,100906.28
2022-12-03T17:37:52.208Z,100902.84
2022-12-03T17:39:55.298Z,100896.78
2022-12-03T17:41:58.412Z,100901.97
2022-12-03T17:44:04.744Z,100890.69
2022-12-03T17:46:11.761Z,100895.03
2022-12-03T17:48:14.770Z,100890.66
2022-12-03T17:50:18.125Z,100883.81
2022-12-03T17:52:20.985Z,100890.75
2022-12-03T17:54:23.938Z,100892.47
2022-12-03T17:56:26.829Z,100889.84
2022-12-03T17:58:30.281Z,100894.22
2022-12-03T18:00:33.485Z,100895.03
2022-12-03T18:02:37.762Z,100892.47
2022-12-03T18:04:40.861Z,100897.66
2022-12-03T18:06:43.845Z,100888.09
2022-12-03T18:08:46.780Z,100888.97
2022-12-03T18:10:49.725Z,100893.34
2022-12-03T18:12:58.326Z,100895.09
2022-12-03T18:15:04.662Z,100891.63
2022-12-03T18:17:07.779Z,100889.00
2022-12-03T18:19:12.228Z,100878.56
2022-12-03T18:21:15.518Z,100886.38
2022-12-03T18:23:18.415Z,100888.97
2022-12-03T18:25:21.355Z,100882.06
2022-12-03T18:27:24.783Z,100878.63
2022-12-03T18:29:27.790Z,100876.00
2022-12-03T18:31:30.870Z,100882.06
2022-12-03T18:33:33.793Z,100873.41
2022-12-03T18:35:38.253Z,100877.75
2022-12-03T18:37:41.354Z,100876.00
2022-12-03T18:39:46.751Z,100879.50
2022-12-03T18:41:49.667Z,100872.56
2022-12-03T18:43:52.764Z,100870.81
2022-12-03T18:45:55.684Z,100880.38
2022-12-03T18:47:59.027Z,100869.94
2022-12-03T18:50:02.367Z,100871.66
2022-12-03T18:52:06.778Z,100870.81
2022-12-03T18:54:12.549Z,100875.97
2022-12-03T18:56:15.857Z,100872.47
2022-12-03T18:58:19.299Z,100872.47
2022-12-03T19:00:22.811Z,100873.34
2022-12-03T19:02:54.347Z,100866.41
2022-12-03T19:04:48.951Z,100869.03
2022-12-03T19:06:51.843Z,100864.72
2022-12-03T19:08:56.417Z,100865.59
2022-12-03T19:11:00.771Z,100868.16
2022-12-03T19:13:04.404Z,100870.75
2022-12-03T19:15:08.906Z,100865.56
2022-12-03T19:17:11.782Z,100866.44
2022-12-03T19:19:14.616Z,100858.59
2022-12-03T19:21:18.031Z,100872.47
2022-12-03T19:23:20.943Z,100873.34
2022-12-03T19:25:25.289Z,100866.41
2022-12-03T19:27:30.183Z,100865.56
2022-12-03T19:29:33.135Z,100874.19
2022-12-03T19:31:36.124Z,100868.97
2022-12-03T19:33:39.236Z,100875.03
2022-12-03T19:35:46.219Z,100877.63
2022-12-03T19:37:49.378Z,100869.00
2022-12-03T19:39:54.320Z,100879.38
2022-12-03T19:41:58.943Z,100880.22
2022-12-03T19:44:06.343Z,100884.59
2022-12-03T19:46:13.408Z,100875.06
2022-12-03T19:48:16.321Z,100875.91
2022-12-03T19:50:23.003Z,100874.19
2022-12-03T19:52:26.304Z,100881.09
2022-12-03T19:54:29.464Z,100885.47
2022-12-03T19:56:32.579Z,100882.88
2022-12-03T19:58:37.156Z,100883.75
2022-12-03T20:00:40.427Z,100888.91
2022-12-03T20:02:43.337Z,100884.59
2022-12-03T20:04:46.619Z,100883.75
2022-12-03T20:06:49.428Z,100882.00
2022-12-03T20:08:52.801Z,100872.47
2022-12-03T20:10:55.873Z,100880.31
2022-12-03T20:12:58.810Z,100877.72
2022-12-03T20:15:03.132Z,100880.31
2022-12-03T20:17:06.243Z,100880.28
2022-12-03T20:19:12.285Z,100873.34
2022-12-03T20:21:16.651Z,100878.56
2022-12-03T20:23:19.831Z,100874.25
2022-12-03T20:25:22.735Z,100868.16
2022-12-03T20:27:25.626Z,100870.75
2022-12-03T20:29:28.532Z,100876.78
2022-12-03T20:31:33.288Z,100868.16
2022-12-03T20:33:36.618Z,100866.41
2022-12-03T20:35:39.557Z,100868.16
2022-12-03T20:37:42.788Z,100862.97
2022-12-03T20:39:45.944Z,100866.44
2022-12-03T20:41:48.834Z,100866.44
2022-12-03T20:43:52.701Z,100865.56
2022-12-03T20:46:01.001Z,100865.56
2022-12-03T20:48:07.173Z,100862.06
2022-12-03T20:50:10.406Z,100862.03
2022-12-03T20:52:13.605Z,100858.53
2022-12-03T20:54:16.530Z,100858.59
2022-12-03T20:56:20.820Z,100855.97
2022-12-03T20:58:23.703Z,100852.50
2022-12-03T21:00:26.663Z,100859.41
2022-12-03T21:02:29.562Z,100851.63
2022-12-03T21:04:33.876Z,100852.50
2022-12-03T21:06:38.160Z,100856.00
2022-12-03T21:08:42.820Z,100851.66
2022-12-03T21:10:46.098Z,100852.50
2022-12-03T21:12:49.008Z,100849.06
2022-12-03T21:14:52.140Z,100850.75
2022-12-03T21:17:11.698Z,100842.09
2022-12-03T21:19:15.305Z,100849.03
2022-12-03T21:21:20.658Z,100845.53
2022-12-03T21:23:23.529Z,100848.19
2022-12-03T21:25:26.550Z,100842.94
2022-12-03T21:27:30.184Z,100843.81
2022-12-03T21:29:33.094Z,100848.13
2022-12-03T21:31:37.381Z,100847.31
2022-12-03T21:33:41.091Z,100836.91
2022-12-03T21:35:44.311Z,100840.31
2022-12-03T21:37:49.166Z,100836.84
2022-12-03T21:39:52.323Z,100834.31
2022-12-03T21:42:34.114Z,100840.38
2022-12-03T21:44:18.370Z,100845.53
2022-12-03T21:47:09.146Z,100838.63
2022-12-03T21:48:45.088Z,100837.78
2022-12-03T21:50:48.088Z,100840.38
2022-12-03T21:52:52.702Z,100836.91
2022-12-03T21:54:56.734Z,100833.47
2022-12-03T21:56:59.655Z,100836.94
2022-12-03T21:59:02.548Z,100834.34
2022-12-03T22:01:12.853Z,100830.88
2022-12-03T22:03:15.924Z,100830.00
2022-12-03T22:05:19.178Z,100840.41
2022-12-03T22:07:22.424Z,100835.22
2022-12-03T22:09:27.097Z,100830.00
2022-12-03T22:11:30.191Z,100826.56
2022-12-03T22:13:33.123Z,100835.19
2022-12-03T22:15:36.822Z,100828.28
2022-12-03T22:17:39.747Z,100833.47
2022-12-03T22:19:43.433Z,100831.72
2022-12-03T22:21:46.652Z,100823.91
2022-12-03T22:23:49.874Z,100826.50
2022-12-03T22:26:00.902Z,100826.50
2022-12-03T22:28:03.880Z,100823.88
2022-12-03T22:30:07.934Z,100823.03
2022-12-03T22:32:10.802Z,100818.72
2022-12-03T22:34:13.879Z,100824.78
2022-12-03T22:36:21.549Z,100819.59
2022-12-03T22:38:25.883Z,100822.19
2022-12-03T22:40:28.984Z,100817.88
2022-12-03T22:42:33.669Z,100824.84
2022-12-03T22:44:39.192Z,100817.88
2022-12-03T22:46:42.115Z,100816.16
2022-12-03T22:48:47.158Z,100807.47
2022-12-03T22:50:50.859Z,100810.94
2022-12-03T22:52:54.075Z,100810.91
2022-12-03T22:54:57.527Z,100812.66
2022-12-03T22:57:00.937Z,100810.94
2022-12-03T22:59:08.259Z,100812.66
2022-12-03T23:01:12.595Z,100802.22
2022-12-03T23:03:15.741Z,100795.34
2022-12-03T23:05:18.981Z,100797.06
2022-12-03T23:07:22.758Z,100797.03
2022-12-03T23:09:26.325Z,100801.38
2022-12-03T23:11:29.676Z,100798.78
2022-12-03T23:13:32.671Z,100802.28
2022-12-03T23:15:37.469Z,100805.75
2022-12-03T23:17:42.144Z,100792.72
2022-12-03T23:19:45.216Z,100797.03
2022-12-03T23:21:48.281Z,100803.13
2022-12-03T23:23:54.709Z,100802.22
2022-12-03T23:25:58.535Z,100806.59
2022-12-03T23:28:01.829Z,100803.13
2022-12-03T23:30:07.907Z,100796.19
2022-12-03T23:32:12.391Z,100797.03
2022-12-03T23:34:15.401Z,100785.78
2022-12-03T23:36:19.486Z,100798.78
2022-12-03T23:38:23.152Z,100797.91
2022-12-03T23:40:26.690Z,100798.75
2022-12-03T23:42:29.925Z,100787.50
2022-12-03T23:44:33.100Z,100786.63
2022-12-03T23:46:36.258Z,100778.84